sensor_id;sensor_type;location;lat;lon;timestamp;temperature;humidity
54846;DHT22;53889;50.084;8.646;2023-07-31T00:00:04;19.00;98.40
54846;DHT22;53889;50.084;8.646;2023-07-31T00:02:31;18.90;98.80
54846;DHT22;53889;50.084;8.646;2023-07-31T00:04:58;18.80;99.20
54846;DHT22;53889;50.084;8.646;2023-07-31T00:07:24;18.80;99.30
54846;DHT22;53889;50.084;8.646;2023-07-31T00:09:51;18.70;99.40
54846;DHT22;53889;50.084;8.646;2023-07-31T00:12:20;18.70;99.50
54846;DHT22;53889;50.084;8.646;2023-07-31T00:14:47;18.70;99.60
54846;DHT22;53889;50.084;8.646;2023-07-31T00:17:13;18.70;99.80
54846;DHT22;53889;50.084;8.646;2023-07-31T00:19:40;18.70;99.60
54846;DHT22;53889;50.084;8.646;2023-07-31T00:22:07;18.70;99.70
54846;DHT22;53889;50.084;8.646;2023-07-31T00:24:34;18.70;99.90
54846;DHT22;53889;50.084;8.646;2023-07-31T00:27:00;18.70;99.90
54846;DHT22;53889;50.084;8.646;2023-07-31T00:29:28;18.70;99.90
54846;DHT22;53889;50.084;8.646;2023-07-31T00:31:56;18.60;99.90
54846;DHT22;53889;50.084;8.646;2023-07-31T00:34:23;18.60;99.90
54846;DHT22;53889;50.084;8.646;2023-07-31T00:36:50;18.60;99.90
54846;DHT22;53889;50.084;8.646;2023-07-31T00:39:16;18.70;99.90
54846;DHT22;53889;50.084;8.646;2023-07-31T00:41:44;18.50;99.90
54846;DHT22;53889;50.084;8.646;2023-07-31T00:44:10;18.40;99.90
54846;DHT22;53889;50.084;8.646;2023-07-31T00:46:39;18.40;99.90
54846;DHT22;53889;50.084;8.646;2023-07-31T00:49:05;18.40;99.90
54846;DHT22;53889;50.084;8.646;2023-07-31T00:51:33;18.40;99.90
54846;DHT22;53889;50.084;8.646;2023-07-31T00:54:00;18.40;99.90
54846;DHT22;53889;50.084;8.646;2023-07-31T00:56:27;18.40;99.90
54846;DHT22;53889;50.084;8.646;2023-07-31T00:58:55;18.50;99.90
54846;DHT22;53889;50.084;8.646;2023-07-31T01:01:22;18.50;99.90
54846;DHT22;53889;50.084;8.646;2023-07-31T01:03:51;18.40;99.90
54846;DHT22;53889;50.084;8.646;2023-07-31T01:06:25;18.40;99.90
54846;DHT22;53889;50.084;8.646;2023-07-31T01:08:59;18.50;99.90
54846;DHT22;53889;50.084;8.646;2023-07-31T01:11:30;18.50;99.90
54846;DHT22;53889;50.084;8.646;2023-07-31T01:13:58;18.40;99.90
54846;DHT22;53889;50.084;8.646;2023-07-31T01:16:25;18.40;99.90
54846;DHT22;53889;50.084;8.646;2023-07-31T01:18:54;18.40;99.90
54846;DHT22;53889;50.084;8.646;2023-07-31T01:21:30;18.50;99.90
54846;DHT22;53889;50.084;8.646;2023-07-31T01:24:23;18.50;99.90
54846;DHT22;53889;50.084;8.646;2023-07-31T01:26:57;18.60;99.90
54846;DHT22;53889;50.084;8.646;2023-07-31T01:29:32;18.60;99.90
54846;DHT22;53889;50.084;8.646;2023-07-31T01:32:02;18.60;99.90
54846;DHT22;53889;50.084;8.646;2023-07-31T01:34:29;18.70;99.90
54846;DHT22;53889;50.084;8.646;2023-07-31T01:36:56;18.60;99.90
54846;DHT22;53889;50.084;8.646;2023-07-31T01:39:23;18.60;99.90
54846;DHT22;53889;50.084;8.646;2023-07-31T01:41:50;18.80;99.90
54846;DHT22;53889;50.084;8.646;2023-07-31T01:44:18;18.70;99.90
54846;DHT22;53889;50.084;8.646;2023-07-31T01:46:45;18.70;99.90
54846;DHT22;53889;50.084;8.646;2023-07-31T01:49:12;18.70;99.60
54846;DHT22;53889;50.084;8.646;2023-07-31T01:51:39;18.80;99.50
54846;DHT22;53889;50.084;8.646;2023-07-31T01:54:07;18.80;99.40
54846;DHT22;53889;50.084;8.646;2023-07-31T01:56:33;18.80;99.00
54846;DHT22;53889;50.084;8.646;2023-07-31T01:59:00;18.80;98.90
54846;DHT22;53889;50.084;8.646;2023-07-31T02:01:28;18.80;99.10
54846;DHT22;53889;50.084;8.646;2023-07-31T02:03:55;18.80;98.90
54846;DHT22;53889;50.084;8.646;2023-07-31T02:06:22;18.80;98.80
54846;DHT22;53889;50.084;8.646;2023-07-31T02:08:49;18.90;98.80
54846;DHT22;53889;50.084;8.646;2023-07-31T02:11:15;18.90;98.60
54846;DHT22;53889;50.084;8.646;2023-07-31T02:13:42;18.90;98.60
54846;DHT22;53889;50.084;8.646;2023-07-31T02:16:09;18.90;98.60
54846;DHT22;53889;50.084;8.646;2023-07-31T02:18:37;19.30;98.70
54846;DHT22;53889;50.084;8.646;2023-07-31T02:21:03;18.80;98.50
54846;DHT22;53889;50.084;8.646;2023-07-31T02:23:30;18.90;98.50
54846;DHT22;53889;50.084;8.646;2023-07-31T02:25:57;19.00;98.30
54846;DHT22;53889;50.084;8.646;2023-07-31T02:28:23;18.90;98.30
54846;DHT22;53889;50.084;8.646;2023-07-31T02:30:50;18.90;98.30
54846;DHT22;53889;50.084;8.646;2023-07-31T02:33:17;19.30;98.30
54846;DHT22;53889;50.084;8.646;2023-07-31T02:35:47;19.00;98.10
54846;DHT22;53889;50.084;8.646;2023-07-31T02:38:13;19.00;98.20
54846;DHT22;53889;50.084;8.646;2023-07-31T02:40:40;19.00;98.40
54846;DHT22;53889;50.084;8.646;2023-07-31T02:43:07;18.90;98.20
54846;DHT22;53889;50.084;8.646;2023-07-31T02:45:34;19.00;98.30
54846;DHT22;53889;50.084;8.646;2023-07-31T02:48:01;18.90;98.20
54846;DHT22;53889;50.084;8.646;2023-07-31T02:50:27;18.90;98.30
54846;DHT22;53889;50.084;8.646;2023-07-31T02:52:55;18.90;98.20
54846;DHT22;53889;50.084;8.646;2023-07-31T02:55:22;18.90;98.40
54846;DHT22;53889;50.084;8.646;2023-07-31T02:57:49;21.50;98.90
54846;DHT22;53889;50.084;8.646;2023-07-31T03:00:17;19.00;98.30
54846;DHT22;53889;50.084;8.646;2023-07-31T03:02:44;19.00;98.30
54846;DHT22;53889;50.084;8.646;2023-07-31T03:05:11;19.00;98.30
54846;DHT22;53889;50.084;8.646;2023-07-31T03:07:37;19.00;98.40
54846;DHT22;53889;50.084;8.646;2023-07-31T03:10:07;18.90;98.50
54846;DHT22;53889;50.084;8.646;2023-07-31T03:12:33;18.90;98.80
54846;DHT22;53889;50.084;8.646;2023-07-31T03:15:00;18.90;98.90
54846;DHT22;53889;50.084;8.646;2023-07-31T03:17:27;18.80;99.10
54846;DHT22;53889;50.084;8.646;2023-07-31T03:19:53;18.80;99.40
54846;DHT22;53889;50.084;8.646;2023-07-31T03:22:20;18.70;99.90
54846;DHT22;53889;50.084;8.646;2023-07-31T03:24:47;18.60;99.90
54846;DHT22;53889;50.084;8.646;2023-07-31T03:27:15;18.50;99.90
54846;DHT22;53889;50.084;8.646;2023-07-31T03:29:42;18.50;99.90
54846;DHT22;53889;50.084;8.646;2023-07-31T03:32:09;18.50;99.90
54846;DHT22;53889;50.084;8.646;2023-07-31T03:34:36;18.50;99.90
54846;DHT22;53889;50.084;8.646;2023-07-31T03:37:05;18.40;99.90
54846;DHT22;53889;50.084;8.646;2023-07-31T03:39:32;18.40;99.90
54846;DHT22;53889;50.084;8.646;2023-07-31T03:41:59;18.40;99.90
54846;DHT22;53889;50.084;8.646;2023-07-31T03:44:29;18.30;99.90
54846;DHT22;53889;50.084;8.646;2023-07-31T03:46:55;18.30;99.90
54846;DHT22;53889;50.084;8.646;2023-07-31T03:49:22;18.40;99.90
54846;DHT22;53889;50.084;8.646;2023-07-31T03:51:49;18.30;99.90
54846;DHT22;53889;50.084;8.646;2023-07-31T03:54:16;18.30;99.90
54846;DHT22;53889;50.084;8.646;2023-07-31T03:56:42;18.30;99.90
54846;DHT22;53889;50.084;8.646;2023-07-31T03:59:09;18.40;99.90
54846;DHT22;53889;50.084;8.646;2023-07-31T04:01:37;20.40;99.90
54846;DHT22;53889;50.084;8.646;2023-07-31T04:04:04;18.40;99.90
54846;DHT22;53889;50.084;8.646;2023-07-31T04:06:31;18.40;99.90
54846;DHT22;53889;50.084;8.646;2023-07-31T04:08:57;18.40;99.90
54846;DHT22;53889;50.084;8.646;2023-07-31T04:11:24;18.30;99.90
54846;DHT22;53889;50.084;8.646;2023-07-31T04:13:51;18.30;99.90
54846;DHT22;53889;50.084;8.646;2023-07-31T04:16:17;18.70;99.90
54846;DHT22;53889;50.084;8.646;2023-07-31T04:18:45;18.40;99.90
54846;DHT22;53889;50.084;8.646;2023-07-31T04:21:12;18.30;99.90
54846;DHT22;53889;50.084;8.646;2023-07-31T04:23:39;18.40;99.90
54846;DHT22;53889;50.084;8.646;2023-07-31T04:26:05;18.30;99.90
54846;DHT22;53889;50.084;8.646;2023-07-31T04:28:32;18.90;99.90
54846;DHT22;53889;50.084;8.646;2023-07-31T04:30:59;20.30;99.90
54846;DHT22;53889;50.084;8.646;2023-07-31T04:33:26;18.50;99.90
54846;DHT22;53889;50.084;8.646;2023-07-31T04:35:54;18.30;99.90
54846;DHT22;53889;50.084;8.646;2023-07-31T04:38:21;18.30;99.90
54846;DHT22;53889;50.084;8.646;2023-07-31T04:40:48;18.30;99.90
54846;DHT22;53889;50.084;8.646;2023-07-31T04:43:15;18.30;99.90
54846;DHT22;53889;50.084;8.646;2023-07-31T04:45:44;18.30;99.90
54846;DHT22;53889;50.084;8.646;2023-07-31T04:48:11;18.30;99.90
54846;DHT22;53889;50.084;8.646;2023-07-31T04:50:38;18.40;99.90
54846;DHT22;53889;50.084;8.646;2023-07-31T04:53:06;18.50;99.90
54846;DHT22;53889;50.084;8.646;2023-07-31T04:55:33;18.40;99.90
54846;DHT22;53889;50.084;8.646;2023-07-31T04:58:00;18.50;99.90
54846;DHT22;53889;50.084;8.646;2023-07-31T05:00:27;18.60;99.90
54846;DHT22;53889;50.084;8.646;2023-07-31T05:02:53;18.50;99.90
54846;DHT22;53889;50.084;8.646;2023-07-31T05:05:20;18.50;99.90
54846;DHT22;53889;50.084;8.646;2023-07-31T05:07:47;18.50;99.90
54846;DHT22;53889;50.084;8.646;2023-07-31T05:10:15;21.10;99.90
54846;DHT22;53889;50.084;8.646;2023-07-31T05:12:42;18.50;99.90
54846;DHT22;53889;50.084;8.646;2023-07-31T05:15:09;19.20;99.90
54846;DHT22;53889;50.084;8.646;2023-07-31T05:17:36;18.60;99.90
54846;DHT22;53889;50.084;8.646;2023-07-31T05:20:03;18.60;99.90
54846;DHT22;53889;50.084;8.646;2023-07-31T05:22:30;18.50;99.90
54846;DHT22;53889;50.084;8.646;2023-07-31T05:24:57;18.60;99.90
54846;DHT22;53889;50.084;8.646;2023-07-31T05:27:25;19.00;99.90
54846;DHT22;53889;50.084;8.646;2023-07-31T05:29:51;18.50;99.90
54846;DHT22;53889;50.084;8.646;2023-07-31T05:32:18;18.50;99.90
54846;DHT22;53889;50.084;8.646;2023-07-31T05:34:45;18.50;99.90
54846;DHT22;53889;50.084;8.646;2023-07-31T05:37:11;18.50;99.90
54846;DHT22;53889;50.084;8.646;2023-07-31T05:39:38;18.60;99.90
54846;DHT22;53889;50.084;8.646;2023-07-31T05:42:05;18.60;99.90
54846;DHT22;53889;50.084;8.646;2023-07-31T05:44:33;18.60;99.90
54846;DHT22;53889;50.084;8.646;2023-07-31T05:47:00;18.60;99.90
54846;DHT22;53889;50.084;8.646;2023-07-31T05:49:27;18.50;99.90
54846;DHT22;53889;50.084;8.646;2023-07-31T05:51:54;18.50;99.90
54846;DHT22;53889;50.084;8.646;2023-07-31T05:54:20;18.50;99.90
54846;DHT22;53889;50.084;8.646;2023-07-31T05:56:47;18.60;99.90
54846;DHT22;53889;50.084;8.646;2023-07-31T05:59:16;18.60;99.90
54846;DHT22;53889;50.084;8.646;2023-07-31T06:01:44;18.70;99.90
54846;DHT22;53889;50.084;8.646;2023-07-31T06:04:11;18.80;99.90
54846;DHT22;53889;50.084;8.646;2023-07-31T06:06:38;18.80;99.90
54846;DHT22;53889;50.084;8.646;2023-07-31T06:09:05;19.00;99.90
54846;DHT22;53889;50.084;8.646;2023-07-31T06:11:32;19.10;99.90
54846;DHT22;53889;50.084;8.646;2023-07-31T06:13:59;19.70;99.90
54846;DHT22;53889;50.084;8.646;2023-07-31T06:16:26;19.10;99.90
54846;DHT22;53889;50.084;8.646;2023-07-31T06:18:54;19.20;99.90
54846;DHT22;53889;50.084;8.646;2023-07-31T06:21:21;19.20;99.90
54846;DHT22;53889;50.084;8.646;2023-07-31T06:23:48;20.00;99.90
54846;DHT22;53889;50.084;8.646;2023-07-31T06:26:14;19.30;99.90
54846;DHT22;53889;50.084;8.646;2023-07-31T06:28:41;19.40;99.90
54846;DHT22;53889;50.084;8.646;2023-07-31T06:31:08;19.60;99.60
54846;DHT22;53889;50.084;8.646;2023-07-31T06:33:35;19.50;99.50
54846;DHT22;53889;50.084;8.646;2023-07-31T06:36:03;20.80;99.90
54846;DHT22;53889;50.084;8.646;2023-07-31T06:38:30;19.60;99.60
54846;DHT22;53889;50.084;8.646;2023-07-31T06:40:56;19.70;99.40
54846;DHT22;53889;50.084;8.646;2023-07-31T06:43:23;20.00;99.10
54846;DHT22;53889;50.084;8.646;2023-07-31T06:45:50;20.30;98.40
54846;DHT22;53889;50.084;8.646;2023-07-31T06:48:17;20.50;98.20
54846;DHT22;53889;50.084;8.646;2023-07-31T06:50:44;20.50;98.10
54846;DHT22;53889;50.084;8.646;2023-07-31T06:53:12;20.60;97.70
54846;DHT22;53889;50.084;8.646;2023-07-31T06:55:38;20.40;97.90
54846;DHT22;53889;50.084;8.646;2023-07-31T06:58:05;20.30;98.10
54846;DHT22;53889;50.084;8.646;2023-07-31T07:00:32;20.20;98.10
54846;DHT22;53889;50.084;8.646;2023-07-31T07:02:59;20.00;98.40
54846;DHT22;53889;50.084;8.646;2023-07-31T07:05:25;20.10;98.60
54846;DHT22;53889;50.084;8.646;2023-07-31T07:07:53;20.10;98.30
54846;DHT22;53889;50.084;8.646;2023-07-31T07:10:21;20.20;98.60
54846;DHT22;53889;50.084;8.646;2023-07-31T07:12:48;19.90;98.80
54846;DHT22;53889;50.084;8.646;2023-07-31T07:15:14;19.90;98.80
54846;DHT22;53889;50.084;8.646;2023-07-31T07:17:40;19.80;98.90
54846;DHT22;53889;50.084;8.646;2023-07-31T07:20:08;19.60;99.10
54846;DHT22;53889;50.084;8.646;2023-07-31T07:22:35;19.60;99.10
54846;DHT22;53889;50.084;8.646;2023-07-31T07:25:02;19.60;99.30
54846;DHT22;53889;50.084;8.646;2023-07-31T07:27:30;19.70;99.20
54846;DHT22;53889;50.084;8.646;2023-07-31T07:29:57;19.80;99.00
54846;DHT22;53889;50.084;8.646;2023-07-31T07:32:24;20.00;98.90
54846;DHT22;53889;50.084;8.646;2023-07-31T07:34:50;20.40;98.50
54846;DHT22;53889;50.084;8.646;2023-07-31T07:37:17;20.90;97.70
54846;DHT22;53889;50.084;8.646;2023-07-31T07:39:44;21.20;97.40
54846;DHT22;53889;50.084;8.646;2023-07-31T07:42:11;20.70;97.50
54846;DHT22;53889;50.084;8.646;2023-07-31T07:44:39;20.70;98.00
54846;DHT22;53889;50.084;8.646;2023-07-31T07:47:06;20.70;98.00
54846;DHT22;53889;50.084;8.646;2023-07-31T07:49:33;20.80;98.10
54846;DHT22;53889;50.084;8.646;2023-07-31T07:52:01;21.10;98.00
54846;DHT22;53889;50.084;8.646;2023-07-31T07:54:28;21.40;97.60
54846;DHT22;53889;50.084;8.646;2023-07-31T07:56:54;21.70;96.70
54846;DHT22;53889;50.084;8.646;2023-07-31T07:59:21;21.60;96.90
54846;DHT22;53889;50.084;8.646;2023-07-31T08:01:49;21.60;96.90
54846;DHT22;53889;50.084;8.646;2023-07-31T08:04:16;21.70;96.90
54846;DHT22;53889;50.084;8.646;2023-07-31T08:06:42;21.60;96.90
54846;DHT22;53889;50.084;8.646;2023-07-31T08:09:09;21.60;96.90
54846;DHT22;53889;50.084;8.646;2023-07-31T08:11:36;21.40;97.20
54846;DHT22;53889;50.084;8.646;2023-07-31T08:14:02;21.20;97.60
54846;DHT22;53889;50.084;8.646;2023-07-31T08:16:29;21.20;97.50
54846;DHT22;53889;50.084;8.646;2023-07-31T08:18:57;21.30;97.80
54846;DHT22;53889;50.084;8.646;2023-07-31T08:21:24;21.00;98.20
54846;DHT22;53889;50.084;8.646;2023-07-31T08:23:51;20.80;98.10
54846;DHT22;53889;50.084;8.646;2023-07-31T08:26:18;20.70;98.40
54846;DHT22;53889;50.084;8.646;2023-07-31T08:28:46;20.80;98.50
54846;DHT22;53889;50.084;8.646;2023-07-31T08:31:14;20.70;98.40
54846;DHT22;53889;50.084;8.646;2023-07-31T08:33:41;20.70;98.50
54846;DHT22;53889;50.084;8.646;2023-07-31T08:36:09;20.80;98.20
54846;DHT22;53889;50.084;8.646;2023-07-31T08:38:38;21.10;98.10
54846;DHT22;53889;50.084;8.646;2023-07-31T08:41:05;21.20;97.70
54846;DHT22;53889;50.084;8.646;2023-07-31T08:43:32;21.30;97.70
54846;DHT22;53889;50.084;8.646;2023-07-31T08:46:02;21.20;97.70
54846;DHT22;53889;50.084;8.646;2023-07-31T08:48:29;21.30;97.80
54846;DHT22;53889;50.084;8.646;2023-07-31T08:50:59;21.20;97.80
54846;DHT22;53889;50.084;8.646;2023-07-31T08:53:27;21.40;97.70
54846;DHT22;53889;50.084;8.646;2023-07-31T08:55:54;21.40;97.80
54846;DHT22;53889;50.084;8.646;2023-07-31T08:58:24;21.80;97.40
54846;DHT22;53889;50.084;8.646;2023-07-31T09:00:52;21.60;97.50
54846;DHT22;53889;50.084;8.646;2023-07-31T09:03:22;21.70;97.30
54846;DHT22;53889;50.084;8.646;2023-07-31T09:05:50;21.50;97.20
54846;DHT22;53889;50.084;8.646;2023-07-31T09:08:19;22.10;97.20
54846;DHT22;53889;50.084;8.646;2023-07-31T09:10:49;21.50;97.20
54846;DHT22;53889;50.084;8.646;2023-07-31T09:13:16;23.20;97.80
54846;DHT22;53889;50.084;8.646;2023-07-31T09:15:44;22.00;97.20
54846;DHT22;53889;50.084;8.646;2023-07-31T09:18:12;22.60;96.60
54846;DHT22;53889;50.084;8.646;2023-07-31T09:20:39;23.20;95.70
54846;DHT22;53889;50.084;8.646;2023-07-31T09:23:07;24.20;94.80
54846;DHT22;53889;50.084;8.646;2023-07-31T09:25:35;24.20;93.20
54846;DHT22;53889;50.084;8.646;2023-07-31T09:28:05;23.50;93.70
54846;DHT22;53889;50.084;8.646;2023-07-31T09:30:44;23.00;94.80
54846;DHT22;53889;50.084;8.646;2023-07-31T09:33:11;22.70;95.60
54846;DHT22;53889;50.084;8.646;2023-07-31T09:35:39;22.40;95.60
54846;DHT22;53889;50.084;8.646;2023-07-31T09:38:08;22.50;95.50
54846;DHT22;53889;50.084;8.646;2023-07-31T09:40:36;22.50;95.50
54846;DHT22;53889;50.084;8.646;2023-07-31T09:43:06;22.30;95.20
54846;DHT22;53889;50.084;8.646;2023-07-31T09:45:36;22.40;95.20
54846;DHT22;53889;50.084;8.646;2023-07-31T09:48:04;22.30;95.80
54846;DHT22;53889;50.084;8.646;2023-07-31T09:50:37;22.00;95.80
54846;DHT22;53889;50.084;8.646;2023-07-31T09:53:05;21.60;98.10
54846;DHT22;53889;50.084;8.646;2023-07-31T09:55:32;21.50;98.00
54846;DHT22;53889;50.084;8.646;2023-07-31T09:58:00;21.50;97.70
54846;DHT22;53889;50.084;8.646;2023-07-31T10:00:30;21.80;96.30
54846;DHT22;53889;50.084;8.646;2023-07-31T10:02:59;22.00;95.80
54846;DHT22;53889;50.084;8.646;2023-07-31T10:05:31;22.10;95.50
54846;DHT22;53889;50.084;8.646;2023-07-31T10:07:58;22.40;95.10
54846;DHT22;53889;50.084;8.646;2023-07-31T10:10:26;22.70;94.60
54846;DHT22;53889;50.084;8.646;2023-07-31T10:12:54;22.90;94.20
54846;DHT22;53889;50.084;8.646;2023-07-31T10:15:22;22.80;94.00
54846;DHT22;53889;50.084;8.646;2023-07-31T10:17:52;24.00;94.60
54846;DHT22;53889;50.084;8.646;2023-07-31T10:20:20;23.10;94.20
54846;DHT22;53889;50.084;8.646;2023-07-31T10:22:48;23.30;93.80
54846;DHT22;53889;50.084;8.646;2023-07-31T10:25:15;23.30;93.60
54846;DHT22;53889;50.084;8.646;2023-07-31T10:27:42;23.50;93.00
54846;DHT22;53889;50.084;8.646;2023-07-31T10:30:12;23.70;93.00
54846;DHT22;53889;50.084;8.646;2023-07-31T10:32:41;23.60;92.90
54846;DHT22;53889;50.084;8.646;2023-07-31T10:35:10;23.30;93.20
54846;DHT22;53889;50.084;8.646;2023-07-31T10:37:38;23.00;93.70
54846;DHT22;53889;50.084;8.646;2023-07-31T10:40:09;23.00;93.50
54846;DHT22;53889;50.084;8.646;2023-07-31T10:42:38;23.20;93.00
54846;DHT22;53889;50.084;8.646;2023-07-31T10:45:09;23.30;92.90
54846;DHT22;53889;50.084;8.646;2023-07-31T10:47:42;23.40;93.10
54846;DHT22;53889;50.084;8.646;2023-07-31T10:50:13;23.60;92.50
54846;DHT22;53889;50.084;8.646;2023-07-31T10:52:39;23.70;92.20
54846;DHT22;53889;50.084;8.646;2023-07-31T10:55:14;24.20;92.10
54846;DHT22;53889;50.084;8.646;2023-07-31T10:57:44;23.90;92.70
54846;DHT22;53889;50.084;8.646;2023-07-31T11:00:18;23.80;92.30
54846;DHT22;53889;50.084;8.646;2023-07-31T11:02:56;23.80;92.20
54846;DHT22;53889;50.084;8.646;2023-07-31T11:05:49;24.00;91.90
54846;DHT22;53889;50.084;8.646;2023-07-31T11:08:20;24.20;91.90
54846;DHT22;53889;50.084;8.646;2023-07-31T11:10:49;24.80;91.30
54846;DHT22;53889;50.084;8.646;2023-07-31T11:13:16;24.80;91.00
54846;DHT22;53889;50.084;8.646;2023-07-31T11:15:43;25.30;90.70
54846;DHT22;53889;50.084;8.646;2023-07-31T11:18:10;27.70;91.30
54846;DHT22;53889;50.084;8.646;2023-07-31T11:20:38;25.80;89.80
54846;DHT22;53889;50.084;8.646;2023-07-31T11:23:10;25.80;88.90
54846;DHT22;53889;50.084;8.646;2023-07-31T11:25:39;25.60;90.10
54846;DHT22;53889;50.084;8.646;2023-07-31T11:28:09;25.50;89.90
54846;DHT22;53889;50.084;8.646;2023-07-31T11:30:36;25.10;90.10
54846;DHT22;53889;50.084;8.646;2023-07-31T11:33:04;24.80;90.40
54846;DHT22;53889;50.084;8.646;2023-07-31T11:35:32;25.00;91.00
54846;DHT22;53889;50.084;8.646;2023-07-31T11:38:00;24.40;90.80
54846;DHT22;53889;50.084;8.646;2023-07-31T11:40:28;24.30;91.00
54846;DHT22;53889;50.084;8.646;2023-07-31T11:42:59;25.00;91.50
54846;DHT22;53889;50.084;8.646;2023-07-31T11:45:30;23.60;91.10
54846;DHT22;53889;50.084;8.646;2023-07-31T11:47:58;24.30;91.10
54846;DHT22;53889;50.084;8.646;2023-07-31T11:50:24;24.10;91.30
54846;DHT22;53889;50.084;8.646;2023-07-31T11:52:54;24.10;91.40
54846;DHT22;53889;50.084;8.646;2023-07-31T11:55:23;24.10;91.30
54846;DHT22;53889;50.084;8.646;2023-07-31T11:57:52;24.10;91.30
54846;DHT22;53889;50.084;8.646;2023-07-31T12:00:19;24.80;91.20
54846;DHT22;53889;50.084;8.646;2023-07-31T12:02:46;24.10;91.10
54846;DHT22;53889;50.084;8.646;2023-07-31T12:05:14;24.40;91.20
54846;DHT22;53889;50.084;8.646;2023-07-31T12:07:48;25.50;90.90
54846;DHT22;53889;50.084;8.646;2023-07-31T12:10:25;25.10;90.40
54846;DHT22;53889;50.084;8.646;2023-07-31T12:13:04;25.30;89.70
54846;DHT22;53889;50.084;8.646;2023-07-31T12:15:36;24.70;90.50
54846;DHT22;53889;50.084;8.646;2023-07-31T12:18:05;24.20;91.00
54846;DHT22;53889;50.084;8.646;2023-07-31T12:20:32;23.90;91.30
54846;DHT22;53889;50.084;8.646;2023-07-31T12:22:58;24.10;91.30
54846;DHT22;53889;50.084;8.646;2023-07-31T12:25:29;24.20;91.40
54846;DHT22;53889;50.084;8.646;2023-07-31T12:27:56;24.20;90.90
54846;DHT22;53889;50.084;8.646;2023-07-31T12:30:28;25.10;91.30
54846;DHT22;53889;50.084;8.646;2023-07-31T12:32:55;23.80;91.20
54846;DHT22;53889;50.084;8.646;2023-07-31T12:35:22;23.70;91.40
54846;DHT22;53889;50.084;8.646;2023-07-31T12:37:49;25.40;92.10
54846;DHT22;53889;50.084;8.646;2023-07-31T12:40:16;23.50;91.50
54846;DHT22;53889;50.084;8.646;2023-07-31T12:42:42;23.50;91.80
54846;DHT22;53889;50.084;8.646;2023-07-31T12:45:09;23.50;91.90
54846;DHT22;53889;50.084;8.646;2023-07-31T12:47:37;23.40;91.80
54846;DHT22;53889;50.084;8.646;2023-07-31T12:50:05;23.40;92.00
54846;DHT22;53889;50.084;8.646;2023-07-31T12:52:32;23.50;92.10
54846;DHT22;53889;50.084;8.646;2023-07-31T12:54:59;23.50;91.90
54846;DHT22;53889;50.084;8.646;2023-07-31T12:57:25;23.70;92.10
54846;DHT22;53889;50.084;8.646;2023-07-31T12:59:52;23.70;91.80
54846;DHT22;53889;50.084;8.646;2023-07-31T13:02:19;23.90;91.80
54846;DHT22;53889;50.084;8.646;2023-07-31T13:04:47;24.30;91.40
54846;DHT22;53889;50.084;8.646;2023-07-31T13:07:13;24.90;91.00
54846;DHT22;53889;50.084;8.646;2023-07-31T13:09:40;26.60;90.90
54846;DHT22;53889;50.084;8.646;2023-07-31T13:12:08;25.40;90.30
54846;DHT22;53889;50.084;8.646;2023-07-31T13:14:34;25.50;90.40
54846;DHT22;53889;50.084;8.646;2023-07-31T13:17:01;25.60;90.30
54846;DHT22;53889;50.084;8.646;2023-07-31T13:19:28;25.30;89.90
54846;DHT22;53889;50.084;8.646;2023-07-31T13:21:56;25.00;90.00
54846;DHT22;53889;50.084;8.646;2023-07-31T13:24:22;24.80;90.10
54846;DHT22;53889;50.084;8.646;2023-07-31T13:26:49;24.60;90.40
54846;DHT22;53889;50.084;8.646;2023-07-31T13:29:16;24.40;90.60
54846;DHT22;53889;50.084;8.646;2023-07-31T13:31:43;24.40;90.60
54846;DHT22;53889;50.084;8.646;2023-07-31T13:34:10;24.40;90.80
54846;DHT22;53889;50.084;8.646;2023-07-31T13:36:36;24.60;90.90
54846;DHT22;53889;50.084;8.646;2023-07-31T13:39:04;24.20;91.00
54846;DHT22;53889;50.084;8.646;2023-07-31T13:41:31;24.20;91.10
54846;DHT22;53889;50.084;8.646;2023-07-31T13:43:58;24.30;91.20
54846;DHT22;53889;50.084;8.646;2023-07-31T13:46:24;24.30;91.20
54846;DHT22;53889;50.084;8.646;2023-07-31T13:48:52;24.40;91.00
54846;DHT22;53889;50.084;8.646;2023-07-31T13:51:21;24.60;90.70
54846;DHT22;53889;50.084;8.646;2023-07-31T13:53:48;24.50;90.90
54846;DHT22;53889;50.084;8.646;2023-07-31T13:56:16;24.40;90.70
54846;DHT22;53889;50.084;8.646;2023-07-31T13:58:43;24.50;91.10
54846;DHT22;53889;50.084;8.646;2023-07-31T14:01:09;24.30;91.30
54846;DHT22;53889;50.084;8.646;2023-07-31T14:03:36;24.70;91.20
54846;DHT22;53889;50.084;8.646;2023-07-31T14:06:03;24.10;91.20
54846;DHT22;53889;50.084;8.646;2023-07-31T14:08:30;23.90;91.50
54846;DHT22;53889;50.084;8.646;2023-07-31T14:10:56;23.60;91.60
54846;DHT22;53889;50.084;8.646;2023-07-31T14:13:24;23.60;91.80
54846;DHT22;53889;50.084;8.646;2023-07-31T14:15:51;23.50;92.00
54846;DHT22;53889;50.084;8.646;2023-07-31T14:18:18;23.40;92.20
54846;DHT22;53889;50.084;8.646;2023-07-31T14:20:45;25.10;92.60
54846;DHT22;53889;50.084;8.646;2023-07-31T14:23:12;23.20;92.50
54846;DHT22;53889;50.084;8.646;2023-07-31T14:25:38;23.20;92.60
54846;DHT22;53889;50.084;8.646;2023-07-31T14:28:05;23.10;92.60
54846;DHT22;53889;50.084;8.646;2023-07-31T14:30:33;23.10;92.70
54846;DHT22;53889;50.084;8.646;2023-07-31T14:33:00;23.10;92.80
54846;DHT22;53889;50.084;8.646;2023-07-31T14:35:27;21.90;92.50
54846;DHT22;53889;50.084;8.646;2023-07-31T14:37:54;23.20;92.90
54846;DHT22;53889;50.084;8.646;2023-07-31T14:40:21;23.20;92.70
54846;DHT22;53889;50.084;8.646;2023-07-31T14:42:48;23.90;93.20
54846;DHT22;53889;50.084;8.646;2023-07-31T14:45:15;23.00;92.80
54846;DHT22;53889;50.084;8.646;2023-07-31T14:47:43;22.90;93.10
54846;DHT22;53889;50.084;8.646;2023-07-31T14:50:10;22.90;93.20
54846;DHT22;53889;50.084;8.646;2023-07-31T14:52:37;22.90;93.10
54846;DHT22;53889;50.084;8.646;2023-07-31T14:55:04;23.00;93.60
54846;DHT22;53889;50.084;8.646;2023-07-31T14:57:31;23.00;93.00
54846;DHT22;53889;50.084;8.646;2023-07-31T14:59:58;23.00;93.10
54846;DHT22;53889;50.084;8.646;2023-07-31T15:02:26;23.10;93.20
54846;DHT22;53889;50.084;8.646;2023-07-31T15:04:54;23.40;93.10
54846;DHT22;53889;50.084;8.646;2023-07-31T15:07:21;24.20;93.40
54846;DHT22;53889;50.084;8.646;2023-07-31T15:09:47;22.90;93.30
54846;DHT22;53889;50.084;8.646;2023-07-31T15:12:14;22.90;93.40
54846;DHT22;53889;50.084;8.646;2023-07-31T15:14:41;22.80;93.70
54846;DHT22;53889;50.084;8.646;2023-07-31T15:17:08;22.80;94.00
54846;DHT22;53889;50.084;8.646;2023-07-31T15:19:35;23.10;93.70
54846;DHT22;53889;50.084;8.646;2023-07-31T15:22:04;22.80;93.70
54846;DHT22;53889;50.084;8.646;2023-07-31T15:24:31;22.70;93.30
54846;DHT22;53889;50.084;8.646;2023-07-31T15:26:58;22.80;93.50
54846;DHT22;53889;50.084;8.646;2023-07-31T15:29:24;22.80;93.40
54846;DHT22;53889;50.084;8.646;2023-07-31T15:31:51;22.80;93.20